createdAt,value
2018-07-20T00:01:37.835Z,99.90
2018-07-20T00:04:06.818Z,99.90
2018-07-20T00:06:35.223Z,99.90
2018-07-20T00:09:04.120Z,99.90
2018-07-20T00:11:32.757Z,99.90
2018-07-20T00:14:01.115Z,99.90
2018-07-20T00:18:58.333Z,99.90
2018-07-20T00:21:26.726Z,99.90
2018-07-20T00:23:55.145Z,99.90
2018-07-20T00:26:23.435Z,99.90
2018-07-20T00:28:51.612Z,99.90
2018-07-20T00:31:19.957Z,99.90
2018-07-20T00:33:48.229Z,99.90
2018-07-20T00:36:16.532Z,99.90
2018-07-20T00:38:45.511Z,99.90
2018-07-20T00:41:13.899Z,99.90
2018-07-20T00:43:42.114Z,99.90
2018-07-20T00:48:39.134Z,99.90
2018-07-20T00:51:07.619Z,99.90
2018-07-20T00:53:36.262Z,99.90
2018-07-20T00:56:05.051Z,99.90
2018-07-20T00:58:33.436Z,99.90
2018-07-20T01:03:30.426Z,99.90
2018-07-20T01:05:58.564Z,99.90
2018-07-20T01:08:27.459Z,99.90
2018-07-20T01:10:55.826Z,99.90
2018-07-20T01:13:24.341Z,99.90
2018-07-20T01:15:52.747Z,99.90
2018-07-20T01:18:21.157Z,99.90
2018-07-20T01:20:49.455Z,99.90
2018-07-20T01:23:18.899Z,99.90
2018-07-20T01:25:47.589Z,99.90
2018-07-20T01:28:16.582Z,99.90
2018-07-20T01:30:45.565Z,99.90
2018-07-20T01:33:13.909Z,99.90
2018-07-20T01:35:42.096Z,99.90
2018-07-20T01:38:10.294Z,99.90
2018-07-20T01:40:38.578Z,99.90
2018-07-20T01:43:07.834Z,99.90
2018-07-20T01:45:36.309Z,99.90
2018-07-20T01:48:04.836Z,99.90
2018-07-20T01:50:33.989Z,99.90
2018-07-20T01:53:03.540Z,99.90
2018-07-20T01:58:00.571Z,99.90
2018-07-20T02:00:29.067Z,99.90
2018-07-20T02:02:57.333Z,99.90
2018-07-20T02:05:25.876Z,99.90
2018-07-20T02:07:55.183Z,99.90
2018-07-20T02:17:47.845Z,99.90
2018-07-20T02:20:16.241Z,99.90
2018-07-20T02:22:44.676Z,99.90
2018-07-20T02:25:13.058Z,99.90
2018-07-20T02:27:42.067Z,99.90
2018-07-20T02:32:39.199Z,99.90
2018-07-20T02:35:07.659Z,99.90
2018-07-20T02:37:35.864Z,99.90
2018-07-20T02:45:00.850Z,99.90
2018-07-20T02:47:29.070Z,99.90
2018-07-20T02:52:25.946Z,99.90
2018-07-20T02:54:54.268Z,99.90
2018-07-20T02:57:22.768Z,99.90
2018-07-20T03:02:19.457Z,99.90
2018-07-20T03:07:15.728Z,99.90
2018-07-20T03:09:44.131Z,99.90
2018-07-20T03:12:12.518Z,99.90
2018-07-20T03:14:41.147Z,99.90
2018-07-20T03:17:09.829Z,99.90
2018-07-20T03:19:38.064Z,99.90
2018-07-20T03:22:08.019Z,99.90
2018-07-20T03:24:36.950Z,99.90
2018-07-20T03:27:05.667Z,99.90
2018-07-20T03:29:33.909Z,99.90
2018-07-20T03:32:02.270Z,99.90
2018-07-20T03:34:30.915Z,99.90
2018-07-20T03:36:59.279Z,99.90
2018-07-20T03:39:27.816Z,99.90
2018-07-20T03:41:56.195Z,99.90
2018-07-20T03:44:24.602Z,99.90
2018-07-20T03:46:52.926Z,99.90
2018-07-20T03:49:21.394Z,99.90
2018-07-20T03:51:49.912Z,99.90
2018-07-20T03:54:17.992Z,99.90
2018-07-20T03:56:46.201Z,99.90
2018-07-20T04:01:42.597Z,99.90
2018-07-20T04:04:10.773Z,99.90
2018-07-20T04:06:39.372Z,99.90
2018-07-20T04:11:36.991Z,99.90
2018-07-20T04:16:34.013Z,99.90
2018-07-20T04:19:02.291Z,99.90
2018-07-20T04:21:30.823Z,99.90
2018-07-20T04:23:59.078Z,99.90
2018-07-20T04:26:27.596Z,98.90
2018-07-20T04:31:24.216Z,95.90
2018-07-20T04:33:52.396Z,93.80
2018-07-20T04:38:49.124Z,90.60
2018-07-20T04:41:17.486Z,87.60
2018-07-20T04:46:14.076Z,80.70
2018-07-20T04:48:42.573Z,77.90
2018-07-20T04:51:11.093Z,74.80
2018-07-20T04:53:39.380Z,72.50
2018-07-20T05:03:32.160Z,62.70
2018-07-20T05:06:01.260Z,60.80
2018-07-20T05:08:29.690Z,59.60
2018-07-20T05:10:57.987Z,57.80
2018-07-20T05:13:26.730Z,56.00
2018-07-20T05:15:55.614Z,54.20
2018-07-20T05:18:24.194Z,53.00
2018-07-20T05:23:20.802Z,50.30
2018-07-20T05:25:49.292Z,48.70
2018-07-20T05:33:13.795Z,46.70
2018-07-20T05:35:42.270Z,45.10
2018-07-20T05:38:11.246Z,44.40
2018-07-20T05:40:39.695Z,44.70
2018-07-20T05:45:35.866Z,41.90
2018-07-20T05:48:04.212Z,41.90
2018-07-20T05:50:33.000Z,40.10
2018-07-20T05:53:03.418Z,39.10
2018-07-20T05:55:31.637Z,38.40
2018-07-20T05:58:00.022Z,37.40
2018-07-20T06:00:28.909Z,36.60
2018-07-20T06:02:57.429Z,36.30
2018-07-20T06:05:25.866Z,35.10
2018-07-20T06:07:54.146Z,34.40
2018-07-20T06:10:22.852Z,33.70
2018-07-20T06:12:51.347Z,33.20
2018-07-20T06:17:48.148Z,33.00
2018-07-20T06:25:12.490Z,32.30
2018-07-20T06:27:40.732Z,31.50
2018-07-20T06:30:09.231Z,31.40
2018-07-20T06:35:05.939Z,30.00
2018-07-20T06:37:34.433Z,29.70
2018-07-20T06:40:03.009Z,29.10
2018-07-20T06:42:31.457Z,28.80
2018-07-20T06:44:59.829Z,28.40
2018-07-20T06:49:56.501Z,27.50
2018-07-20T06:52:25.139Z,26.90
2018-07-20T06:54:53.523Z,26.40
2018-07-20T06:57:21.683Z,26.40
2018-07-20T06:59:50.409Z,26.10
2018-07-20T07:02:18.729Z,26.30
2018-07-20T07:07:15.104Z,26.10
2018-07-20T07:12:11.414Z,25.80
2018-07-20T07:14:39.722Z,25.90
2018-07-20T07:17:08.112Z,25.50
2018-07-20T07:19:36.518Z,25.40
2018-07-20T07:22:05.073Z,25.10
2018-07-20T07:24:33.804Z,24.90
2018-07-20T07:29:30.208Z,23.70
2018-07-20T07:31:58.595Z,23.70
2018-07-20T07:39:22.756Z,22.30
2018-07-20T07:41:51.165Z,22.30
2018-07-20T07:44:19.540Z,22.00
2018-07-20T07:46:47.875Z,21.80
2018-07-20T07:49:16.918Z,21.80
2018-07-20T07:51:45.999Z,21.60
2018-07-20T07:56:43.117Z,21.20
2018-07-20T07:59:11.491Z,21.20
2018-07-20T08:01:39.794Z,21.00
2018-07-20T08:04:08.228Z,20.80
2018-07-20T08:06:36.860Z,20.90
2018-07-20T08:09:08.344Z,20.90
2018-07-20T08:11:37.124Z,20.90
2018-07-20T08:14:06.432Z,20.80
2018-07-20T08:16:34.898Z,21.20
2018-07-20T08:19:03.421Z,21.20
2018-07-20T08:21:31.897Z,22.50
2018-07-20T08:24:00.424Z,22.40
2018-07-20T08:26:28.792Z,22.50
2018-07-20T08:28:57.615Z,23.00
2018-07-20T08:31:25.920Z,23.10
2018-07-20T08:36:22.399Z,23.90
2018-07-20T08:38:51.021Z,24.20
2018-07-20T08:43:47.523Z,26.30
2018-07-20T08:46:15.938Z,27.20
2018-07-20T08:48:44.324Z,27.30
2018-07-20T08:51:13.333Z,28.10
2018-07-20T09:01:05.890Z,31.30
2018-07-20T09:03:34.307Z,31.00
2018-07-20T09:06:02.696Z,31.20
2018-07-20T09:13:27.256Z,29.80
2018-07-20T09:15:55.493Z,29.10
2018-07-20T09:18:23.745Z,28.90
2018-07-20T09:20:52.722Z,29.00
2018-07-20T09:23:21.198Z,30.00
2018-07-20T09:25:50.300Z,29.80
2018-07-20T09:28:19.263Z,30.30
2018-07-20T09:30:47.412Z,31.60
2018-07-20T09:35:44.330Z,30.70
2018-07-20T09:38:12.706Z,30.00
2018-07-20T09:40:41.720Z,30.00
2018-07-20T09:45:38.016Z,31.10
2018-07-20T09:50:34.297Z,30.70
2018-07-20T09:53:02.578Z,30.60
2018-07-20T09:55:30.819Z,30.40
2018-07-20T09:57:59.002Z,30.30
2018-07-20T10:03:00.856Z,30.60
2018-07-20T10:05:29.226Z,30.80
2018-07-20T10:07:57.681Z,30.90
2018-07-20T10:10:25.996Z,31.20
2018-07-20T10:12:54.407Z,31.30
2018-07-20T10:17:50.786Z,31.80
2018-07-20T10:20:19.344Z,31.80
2018-07-20T10:22:47.899Z,31.60
2018-07-20T10:25:16.203Z,31.80
2018-07-20T10:30:12.593Z,31.90
2018-07-20T10:32:41.076Z,31.70
2018-07-20T10:37:37.689Z,31.80
2018-07-20T10:40:06.070Z,32.20
2018-07-20T10:42:34.373Z,32.60
2018-07-20T10:45:02.894Z,32.90
2018-07-20T10:47:31.197Z,33.10
2018-07-20T10:49:59.549Z,33.20
2018-07-20T10:52:27.977Z,33.30
2018-07-20T10:54:56.470Z,33.50
2018-07-20T10:59:53.133Z,33.70
2018-07-20T11:02:21.477Z,33.60
2018-07-20T11:07:17.824Z,33.70
2018-07-20T11:09:45.949Z,33.80
2018-07-20T11:14:42.450Z,34.70
2018-07-20T11:19:38.604Z,33.70
2018-07-20T11:22:07.664Z,34.30
2018-07-20T11:24:35.947Z,33.60
2018-07-20T11:29:32.121Z,33.70
2018-07-20T11:32:00.618Z,33.70
2018-07-20T11:34:28.927Z,33.50
2018-07-20T11:36:57.529Z,33.40
2018-07-20T11:41:55.208Z,33.20
2018-07-20T11:44:23.449Z,33.80
2018-07-20T11:49:19.846Z,33.30
2018-07-20T11:54:16.688Z,33.70
2018-07-20T11:56:45.148Z,33.70
2018-07-20T11:59:13.530Z,33.70
2018-07-20T12:01:41.938Z,33.50
2018-07-20T12:04:10.552Z,33.40
2018-07-20T12:06:38.932Z,33.20
2018-07-20T12:09:10.090Z,33.20
2018-07-20T12:11:38.627Z,33.00
2018-07-20T12:14:06.813Z,33.40
2018-07-20T12:16:35.127Z,32.90
2018-07-20T12:19:03.447Z,32.30
2018-07-20T12:24:00.008Z,31.80
2018-07-20T12:26:28.799Z,31.80
2018-07-20T12:31:25.281Z,31.20
2018-07-20T12:33:53.830Z,31.40
2018-07-20T12:36:21.999Z,31.30
2018-07-20T12:38:50.311Z,31.10
2018-07-20T12:41:18.784Z,31.40
2018-07-20T12:46:15.292Z,32.50
2018-07-20T12:51:11.734Z,32.30
2018-07-20T12:53:40.590Z,32.40
2018-07-20T12:58:37.007Z,32.40
2018-07-20T13:01:05.234Z,32.40
2018-07-20T13:03:33.450Z,32.20
2018-07-20T13:06:01.804Z,32.40
2018-07-20T13:08:30.284Z,32.40
2018-07-20T13:10:58.761Z,32.40
2018-07-20T13:13:27.130Z,32.40
2018-07-20T13:15:55.235Z,32.20
2018-07-20T13:18:23.570Z,32.30
2018-07-20T13:20:52.171Z,32.60
2018-07-20T13:23:20.819Z,32.70
2018-07-20T13:25:50.507Z,32.70
2018-07-20T13:28:20.059Z,32.60
2018-07-20T13:30:49.667Z,32.60
2018-07-20T13:33:18.905Z,32.80
2018-07-20T13:35:48.017Z,33.10
2018-07-20T13:38:16.824Z,33.50
2018-07-20T13:40:45.520Z,33.70
2018-07-20T13:43:14.445Z,33.60
2018-07-20T13:45:43.432Z,33.70
2018-07-20T13:48:11.922Z,33.70
2018-07-20T13:50:40.207Z,33.50
2018-07-20T13:58:05.333Z,33.50
2018-07-20T14:00:33.929Z,33.50
2018-07-20T14:03:02.463Z,33.40
2018-07-20T14:05:31.028Z,33.40
2018-07-20T14:10:27.533Z,33.20
2018-07-20T14:12:56.422Z,33.30
2018-07-20T14:15:24.845Z,33.30
2018-07-20T14:17:53.617Z,33.20
2018-07-20T14:20:22.029Z,33.20
2018-07-20T14:22:50.721Z,33.30
2018-07-20T14:25:19.047Z,32.70
2018-07-20T14:30:15.421Z,33.00
2018-07-20T14:42:36.607Z,33.30
2018-07-20T14:47:33.323Z,33.30
2018-07-20T14:52:29.872Z,33.20
2018-07-20T14:54:59.566Z,33.10
2018-07-20T14:57:28.810Z,33.10
2018-07-20T14:59:57.468Z,33.10
2018-07-20T15:02:26.021Z,32.90
2018-07-20T15:04:55.112Z,32.90
2018-07-20T15:07:23.281Z,33.00
2018-07-20T15:12:20.061Z,32.90
2018-07-20T15:14:48.494Z,33.20
2018-07-20T15:17:17.086Z,33.30
2018-07-20T15:22:13.647Z,33.50
2018-07-20T15:24:42.076Z,33.80
2018-07-20T15:27:11.690Z,34.00
2018-07-20T15:32:07.997Z,34.70
2018-07-20T15:34:36.256Z,34.50
2018-07-20T15:37:04.810Z,34.70
2018-07-20T15:39:33.144Z,34.70
2018-07-20T15:42:01.498Z,34.80
2018-07-20T15:44:29.751Z,34.90
2018-07-20T15:46:58.880Z,34.70
2018-07-20T15:49:27.175Z,34.50
2018-07-20T15:53:35.344Z,34.20
2018-07-20T15:54:24.188Z,34.10
2018-07-20T15:56:52.665Z,34.30
2018-07-20T15:59:20.985Z,34.50
2018-07-20T16:06:45.658Z,34.20
2018-07-20T16:09:14.142Z,34.20
2018-07-20T16:11:42.649Z,34.20
2018-07-20T16:14:10.785Z,34.10
2018-07-20T16:16:39.033Z,34.10
2018-07-20T16:19:08.184Z,34.00
2018-07-20T16:21:36.798Z,34.00
2018-07-20T16:29:01.584Z,33.90
2018-07-20T16:33:58.076Z,33.90
2018-07-20T16:36:26.676Z,34.10
2018-07-20T16:38:55.075Z,34.20
2018-07-20T16:41:23.606Z,34.30
2018-07-20T16:43:53.095Z,34.10
2018-07-20T16:46:21.483Z,34.60
2018-07-20T16:48:50.579Z,35.00
2018-07-20T16:51:18.926Z,34.80
2018-07-20T16:53:47.127Z,35.20
2018-07-20T16:56:16.102Z,35.30
2018-07-20T16:58:44.536Z,35.40
2018-07-20T17:01:13.006Z,35.80
2018-07-20T17:03:41.323Z,35.80
2018-07-20T17:11:05.813Z,36.00
2018-07-20T17:16:02.701Z,36.20
2018-07-20T17:18:31.720Z,36.90
2018-07-20T17:21:00.012Z,36.80
2018-07-20T17:23:28.299Z,36.80
2018-07-20T17:25:56.727Z,36.70
2018-07-20T17:28:25.941Z,36.70
2018-07-20T17:33:22.429Z,36.80
2018-07-20T17:38:19.276Z,37.00
2018-07-20T17:40:47.764Z,37.20
2018-07-20T17:43:16.235Z,37.40
2018-07-20T17:48:12.736Z,37.70
2018-07-20T17:50:41.127Z,38.00
2018-07-20T18:00:34.204Z,38.50
2018-07-20T18:03:02.479Z,38.70
2018-07-20T18:05:30.933Z,38.80
2018-07-20T18:08:01.984Z,39.00
2018-07-20T18:10:30.341Z,39.10
2018-07-20T18:12:58.783Z,39.20
2018-07-20T18:15:27.688Z,39.40
2018-07-20T18:17:56.014Z,39.50
2018-07-20T18:20:24.379Z,39.70
2018-07-20T18:37:42.688Z,41.20
2018-07-20T18:40:10.872Z,41.20
2018-07-20T18:42:39.228Z,41.30
2018-07-20T18:45:08.072Z,41.50
2018-07-20T18:50:08.593Z,42.80
2018-07-20T18:52:39.227Z,42.60
2018-07-20T18:55:09.042Z,42.50
2018-07-20T18:57:39.315Z,42.50
2018-07-20T19:00:10.490Z,42.60
2018-07-20T19:02:39.533Z,42.70
2018-07-20T19:05:08.039Z,42.80
2018-07-20T19:10:05.156Z,43.30
2018-07-20T19:12:33.737Z,43.30
2018-07-20T19:15:02.248Z,43.50
2018-07-20T19:17:30.640Z,43.70
2018-07-20T19:19:59.023Z,43.80
2018-07-20T19:22:28.067Z,44.00
2018-07-20T19:27:24.526Z,44.30
2018-07-20T19:29:53.278Z,44.40
2018-07-20T19:32:21.766Z,44.50
2018-07-20T19:39:46.533Z,44.80
2018-07-20T19:42:14.898Z,44.90
2018-07-20T19:44:43.266Z,45.20
2018-07-20T19:47:12.901Z,45.20
2018-07-20T19:49:42.583Z,45.30
2018-07-20T19:52:10.811Z,45.40
2018-07-20T19:54:40.314Z,45.40
2018-07-20T19:59:36.505Z,46.00
2018-07-20T20:02:05.607Z,45.80
2018-07-20T20:04:34.451Z,45.90
2018-07-20T20:07:02.931Z,45.90
2018-07-20T20:09:31.241Z,46.00
2018-07-20T20:16:56.041Z,46.20
2018-07-20T20:19:24.556Z,46.30
2018-07-20T20:21:52.738Z,46.30
2018-07-20T20:24:21.136Z,46.20
2018-07-20T20:26:50.052Z,46.30
2018-07-20T20:29:18.593Z,46.40
2018-07-20T20:31:50.894Z,46.30
2018-07-20T20:34:20.577Z,46.40
2018-07-20T20:36:52.441Z,47.00
2018-07-20T20:39:23.860Z,46.50
2018-07-20T20:41:55.143Z,46.60
2018-07-20T20:44:25.194Z,46.80
2018-07-20T20:46:55.537Z,47.00
2018-07-20T20:49:25.839Z,47.00
2018-07-20T20:51:54.194Z,47.20
2018-07-20T20:56:52.390Z,47.20
2018-07-20T20:59:20.733Z,47.20
2018-07-20T21:01:49.519Z,47.20
2018-07-20T21:04:19.770Z,47.40
2018-07-20T21:06:48.204Z,47.40
2018-07-20T21:09:16.252Z,47.50
2018-07-20T21:16:40.736Z,47.70
2018-07-20T21:19:09.258Z,47.90
2018-07-20T21:21:37.647Z,48.00
2018-07-20T21:24:09.303Z,48.00
2018-07-20T21:29:07.215Z,48.10
2018-07-20T21:31:37.598Z,48.10
2018-07-20T21:34:05.855Z,48.10
2018-07-20T21:36:33.853Z,48.20
2018-07-20T21:39:02.655Z,48.30
2018-07-20T21:41:31.063Z,48.30
2018-07-20T21:43:59.703Z,48.40
2018-07-20T21:46:27.964Z,48.50
2018-07-20T21:51:24.570Z,48.60
2018-07-20T21:58:49.127Z,48.70
2018-07-20T22:01:17.461Z,48.70
2018-07-20T22:06:13.984Z,48.80
2018-07-20T22:08:42.364Z,49.60
2018-07-20T22:11:10.743Z,49.40
2018-07-20T22:13:38.812Z,49.30
2018-07-20T22:16:07.040Z,49.30
2018-07-20T22:21:04.555Z,50.90
2018-07-20T22:26:01.677Z,50.50
2018-07-20T22:28:31.204Z,50.60
2018-07-20T22:30:59.700Z,50.60
2018-07-20T22:33:28.080Z,50.80
2018-07-20T22:35:56.368Z,52.60
2018-07-20T22:38:24.784Z,52.30
2018-07-20T22:43:20.991Z,52.40
2018-07-20T22:45:49.475Z,52.40
2018-07-20T22:50:45.775Z,52.70
2018-07-20T23:00:38.113Z,53.10
2018-07-20T23:03:06.604Z,53.40
2018-07-20T23:05:34.922Z,53.60
2018-07-20T23:08:03.216Z,53.80
2018-07-20T23:10:31.732Z,54.00
2018-07-20T23:15:28.106Z,54.30
2018-07-20T23:17:57.545Z,54.50
2018-07-20T23:20:25.954Z,54.70
2018-07-20T23:22:54.333Z,54.80
2018-07-20T23:25:22.965Z,54.90
2018-07-20T23:27:51.197Z,55.10
2018-07-20T23:30:19.225Z,55.20
2018-07-20T23:32:47.529Z,55.30
2018-07-20T23:37:43.850Z,55.50
2018-07-20T23:40:12.116Z,57.50
2018-07-20T23:45:09.125Z,57.00
2018-07-20T23:50:07.436Z,56.90
2018-07-20T23:52:40.134Z,56.90
2018-07-20T23:55:08.728Z,57.00
2018-07-20T23:57:36.943Z,57.10
